Time;durP1;ratioP1;P1;durP2;ratioP2;P2;SDS_P1;SDS_P2;PMS_P1;PMS_P2;Temp;Humidity;BMP_temperature;BMP_pressure;BME280_temperature;BME280_humidity;BME280_pressure;Samples;Min_cycle;Max_cycle;Signal;HPM_P1;HPM_P2
2021/01/31 00:00:41;;;;;;;0.65;0.60;;;;;;;;;;5109053;28;20053;-65
2021/01/31 00:03:09;;;;;;;1.05;0.77;;;;;;;;;;5109542;28;20028;-65
2021/01/31 00:05:35;;;;;;;0.52;0.52;;;;;;;;;;5109168;28;20051;-64
2021/01/31 00:08:01;;;;;;;0.80;0.60;;;;;;;;;;5109097;28;20023;-65
2021/01/31 00:10:29;;;;;;;1.58;0.80;;;;;;;;;;5108610;28;20068;-64
2021/01/31 00:12:55;;;;;;;0.85;0.50;;;;;;;;;;5111636;28;20019;-64
2021/01/31 00:15:23;;;;;;;0.93;0.60;;;;;;;;;;5113192;28;20015;-62
2021/01/31 00:17:49;;;;;;;0.98;0.73;;;;;;;;;;5113176;28;20028;-64
2021/01/31 00:20:16;;;;;;;1.27;0.70;;;;;;;;;;5104826;28;20103;-64
2021/01/31 00:22:43;;;;;;;1.20;0.60;;;;;;;;;;5112684;28;20621;-65
2021/01/31 00:25:09;;;;;;;1.45;0.55;;;;;;;;;;5112630;28;20035;-64
2021/01/31 00:27:35;;;;;;;0.60;0.60;;;;;;;;;;5108096;28;20026;-65
2021/01/31 00:30:01;;;;;;;0.90;0.70;;;;;;;;;;5112726;28;20040;-64
2021/01/31 00:32:28;;;;;;;1.17;0.70;;;;;;;;;;5111877;28;20020;-63
2021/01/31 00:34:55;;;;;;;0.93;0.57;;;;;;;;;;5111725;28;20068;-64
2021/01/31 00:37:21;;;;;;;1.45;0.50;;;;;;;;;;5112530;28;20372;-64
2021/01/31 00:39:48;;;;;;;0.60;0.60;;;;;;;;;;5111941;28;20174;-64
2021/01/31 00:42:16;;;;;;;0.80;0.57;;;;;;;;;;5106332;28;20094;-64
2021/01/31 00:44:42;;;;;;;0.57;0.55;;;;;;;;;;5110183;28;20035;-64
2021/01/31 00:47:08;;;;;;;0.68;0.60;;;;;;;;;;5112773;28;20023;-64
2021/01/31 00:49:34;;;;;;;1.25;0.88;;;;;;;;;;5111631;28;20050;-63
2021/01/31 00:52:00;;;;;;;1.30;0.77;;;;;;;;;;5104047;28;20034;-64
2021/01/31 00:54:26;;;;;;;1.23;0.65;;;;;;;;;;5111981;28;20024;-62
2021/01/31 00:56:52;;;;;;;1.25;0.60;;;;;;;;;;5111730;28;20024;-64
2021/01/31 00:59:18;;;;;;;1.02;0.60;;;;;;;;;;5109374;28;20038;-64
2021/01/31 01:01:44;;;;;;;1.30;0.75;;;;;;;;;;5111207;28;20024;-64
2021/01/31 01:04:10;;;;;;;1.20;0.70;;;;;;;;;;5112851;28;20054;-64
2021/01/31 01:06:36;;;;;;;1.40;0.75;;;;;;;;;;5112059;28;20030;-65
2021/01/31 01:09:02;;;;;;;1.33;0.77;;;;;;;;;;5112176;28;20032;-64
2021/01/31 01:11:28;;;;;;;1.83;0.55;;;;;;;;;;5110976;28;20030;-64
2021/01/31 01:13:54;;;;;;;0.68;0.50;;;;;;;;;;5108174;27;20091;-65
2021/01/31 01:16:20;;;;;;;1.58;1.13;;;;;;;;;;5107392;28;20453;-64
2021/01/31 01:18:46;;;;;;;1.25;0.80;;;;;;;;;;5111199;28;20023;-64
2021/01/31 01:21:13;;;;;;;1.00;0.80;;;;;;;;;;5112653;28;20020;-64
2021/01/31 01:23:40;;;;;;;1.27;0.60;;;;;;;;;;5110592;28;20437;-64
2021/01/31 01:26:06;;;;;;;0.80;0.70;;;;;;;;;;5110506;28;20092;-64
2021/01/31 01:28:32;;;;;;;0.88;0.52;;;;;;;;;;5110932;28;20410;-64
2021/01/31 01:30:58;;;;;;;1.02;0.60;;;;;;;;;;5111629;28;20028;-64
2021/01/31 01:33:24;;;;;;;1.33;0.50;;;;;;;;;;5111426;28;20503;-62
2021/01/31 01:35:50;;;;;;;1.33;0.77;;;;;;;;;;5111083;28;20027;-64
2021/01/31 01:38:16;;;;;;;0.88;0.65;;;;;;;;;;5111651;28;20015;-65
2021/01/31 01:40:42;;;;;;;0.80;0.60;;;;;;;;;;5111072;28;20554;-64
2021/01/31 01:43:18;;;;;;;0.73;0.63;;;;;;;;;;5111008;28;20024;-64
2021/01/31 01:45:45;;;;;;;1.58;1.00;;;;;;;;;;5110746;28;20618;-64
2021/01/31 01:48:16;;;;;;;1.92;0.73;;;;;;;;;;5111135;28;20395;-65
2021/01/31 01:50:46;;;;;;;0.88;0.73;;;;;;;;;;5110803;28;20088;-64
2021/01/31 01:53:12;;;;;;;1.05;0.77;;;;;;;;;;5111314;28;20095;-64
2021/01/31 01:55:42;;;;;;;0.77;0.57;;;;;;;;;;5110657;28;20110;-64
2021/01/31 01:58:16;;;;;;;1.00;0.60;;;;;;;;;;5105305;28;20030;-65
2021/01/31 02:00:43;;;;;;;0.88;0.65;;;;;;;;;;5110136;28;20032;-64
2021/01/31 02:03:30;;;;;;;1.35;0.65;;;;;;;;;;5111741;28;20042;-64
2021/01/31 02:05:58;;;;;;;0.57;0.50;;;;;;;;;;5111163;28;20032;-64
2021/01/31 02:08:24;;;;;;;0.80;0.60;;;;;;;;;;5109751;28;20080;-62
2021/01/31 02:10:50;;;;;;;0.70;0.60;;;;;;;;;;5110511;28;20027;-64
2021/01/31 02:13:16;;;;;;;2.30;0.60;;;;;;;;;;5111297;28;20020;-64
2021/01/31 02:15:42;;;;;;;1.05;0.57;;;;;;;;;;5109981;28;20020;-65
2021/01/31 02:18:11;;;;;;;0.98;0.77;;;;;;;;;;5110756;28;20024;-64
2021/01/31 02:20:46;;;;;;;0.77;0.45;;;;;;;;;;5109837;28;20448;-65
2021/01/31 02:23:31;;;;;;;1.40;0.52;;;;;;;;;;5110662;28;20110;-65
2021/01/31 02:26:14;;;;;;;0.57;0.52;;;;;;;;;;5110643;28;20056;-64
2021/01/31 02:28:53;;;;;;;0.90;0.70;;;;;;;;;;5102116;28;20036;-64
2021/01/31 02:31:29;;;;;;;1.27;0.60;;;;;;;;;;5104145;28;20031;-65
2021/01/31 02:33:59;;;;;;;0.95;0.55;;;;;;;;;;5110719;28;20360;-64
2021/01/31 02:36:40;;;;;;;0.88;0.52;;;;;;;;;;5110055;28;20023;-62
2021/01/31 02:39:15;;;;;;;0.80;0.68;;;;;;;;;;5110615;28;20095;-64
2021/01/31 02:41:44;;;;;;;0.80;0.50;;;;;;;;;;5107563;28;20012;-64
2021/01/31 02:44:11;;;;;;;1.25;0.60;;;;;;;;;;5104553;28;20103;-65
2021/01/31 02:46:51;;;;;;;0.60;0.60;;;;;;;;;;5109651;28;20046;-64
2021/01/31 02:49:19;;;;;;;0.93;0.60;;;;;;;;;;5110545;28;20036;-64
2021/01/31 02:51:54;;;;;;;1.02;0.75;;;;;;;;;;5109776;28;20012;-64
2021/01/31 02:54:20;;;;;;;0.60;0.60;;;;;;;;;;5103269;28;20085;-64
2021/01/31 02:56:49;;;;;;;0.90;0.70;;;;;;;;;;5108439;28;20024;-64
2021/01/31 02:59:20;;;;;;;0.43;0.43;;;;;;;;;;5108798;28;20358;-64
2021/01/31 03:02:16;;;;;;;1.10;0.68;;;;;;;;;;5108345;28;20032;-64
2021/01/31 03:04:42;;;;;;;1.23;0.50;;;;;;;;;;5084807;28;20032;-64
2021/01/31 03:07:15;;;;;;;0.50;0.50;;;;;;;;;;5110043;28;20034;-64
2021/01/31 03:09:44;;;;;;;0.82;0.73;;;;;;;;;;5109421;28;20349;-65
2021/01/31 03:12:11;;;;;;;1.73;0.60;;;;;;;;;;5110240;28;20034;-64
2021/01/31 03:14:46;;;;;;;1.23;0.75;;;;;;;;;;5107551;28;20464;-64
2021/01/31 03:17:12;;;;;;;0.63;0.52;;;;;;;;;;5109826;28;20479;-64
2021/01/31 03:19:47;;;;;;;0.80;0.68;;;;;;;;;;5109837;28;20031;-64
2021/01/31 03:22:19;;;;;;;0.50;0.50;;;;;;;;;;5110097;28;20019;-64
2021/01/31 03:24:45;;;;;;;;;;;;;;;;;;5109931;28;20663;-64
2021/01/31 03:27:17;;;;;;;1.20;0.70;;;;;;;;;;5105891;28;19943;-64
2021/01/31 03:29:43;;;;;;;0.75;0.50;;;;;;;;;;5109590;28;20219;-65
2021/01/31 03:32:21;;;;;;;0.80;0.60;;;;;;;;;;5109835;28;20107;-64
2021/01/31 03:34:53;;;;;;;1.02;0.77;;;;;;;;;;5109937;28;20031;-64
2021/01/31 03:37:20;;;;;;;0.77;0.50;;;;;;;;;;5109989;28;20050;-64
2021/01/31 03:39:49;;;;;;;0.57;0.52;;;;;;;;;;5109240;28;20425;-63
2021/01/31 03:42:15;;;;;;;1.73;0.80;;;;;;;;;;5106492;28;20020;-62
2021/01/31 03:44:42;;;;;;;0.65;0.57;;;;;;;;;;5109702;28;20027;-65
2021/01/31 03:47:14;;;;;;;1.17;0.75;;;;;;;;;;5110862;28;20110;-64
2021/01/31 03:50:09;;;;;;;0.80;0.70;;;;;;;;;;5112907;28;20380;-65
2021/01/31 03:52:35;;;;;;;0.98;0.50;;;;;;;;;;5097762;28;20790;-64
2021/01/31 03:55:02;;;;;;;1.00;0.70;;;;;;;;;;5113663;28;20062;-64
2021/01/31 03:57:39;;;;;;;0.80;0.60;;;;;;;;;;5112481;28;20020;-62
2021/01/31 04:00:06;;;;;;;0.98;0.70;;;;;;;;;;5113276;28;20032;-65
2021/01/31 04:02:37;;;;;;;1.25;0.60;;;;;;;;;;5112624;28;20022;-64
2021/01/31 04:05:04;;;;;;;0.70;0.60;;;;;;;;;;5113414;28;20028;-64
2021/01/31 04:07:32;;;;;;;0.68;0.50;;;;;;;;;;5112893;28;20034;-64
2021/01/31 04:10:01;;;;;;;1.05;0.50;;;;;;;;;;5113621;28;20035;-64
2021/01/31 04:12:28;;;;;;;1.33;0.70;;;;;;;;;;5112464;28;20019;-65
2021/01/31 04:15:01;;;;;;;1.25;0.57;;;;;;;;;;5113440;28;20024;-64
2021/01/31 04:17:27;;;;;;;0.70;0.57;;;;;;;;;;5112702;28;20020;-62
2021/01/31 04:19:53;;;;;;;0.60;0.57;;;;;;;;;;5112804;28;20027;-64
2021/01/31 04:22:19;;;;;;;1.40;0.57;;;;;;;;;;5113021;28;20020;-63
2021/01/31 04:24:46;;;;;;;1.00;0.70;;;;;;;;;;5112797;28;20015;-64
2021/01/31 04:27:12;;;;;;;1.00;0.80;;;;;;;;;;5110156;28;20024;-64
2021/01/31 04:29:38;;;;;;;1.77;0.85;;;;;;;;;;5109233;28;20126;-65
2021/01/31 04:32:04;;;;;;;1.25;0.60;;;;;;;;;;5110689;28;20106;-64
2021/01/31 04:34:30;;;;;;;0.98;0.73;;;;;;;;;;5111968;28;20035;-64
2021/01/31 04:36:56;;;;;;;1.58;0.80;;;;;;;;;;5111927;28;20031;-64
2021/01/31 04:39:22;;;;;;;0.65;0.60;;;;;;;;;;5112860;28;20035;-62
2021/01/31 04:41:49;;;;;;;0.65;0.60;;;;;;;;;;5111021;28;20026;-64
2021/01/31 04:44:17;;;;;;;1.10;0.85;;;;;;;;;;5112789;28;20495;-64
2021/01/31 04:46:45;;;;;;;1.00;0.65;;;;;;;;;;5112189;28;20276;-65
2021/01/31 04:49:11;;;;;;;0.93;0.75;;;;;;;;;;5111300;28;20043;-64
2021/01/31 04:51:43;;;;;;;1.05;0.80;;;;;;;;;;5111865;28;20016;-64
2021/01/31 04:54:16;;;;;;;1.10;0.70;;;;;;;;;;5112797;28;20024;-65
2021/01/31 04:56:53;;;;;;;0.85;0.68;;;;;;;;;;5111630;28;20020;-63
2021/01/31 04:59:25;;;;;;;0.95;0.73;;;;;;;;;;5105277;28;20529;-64
2021/01/31 05:02:01;;;;;;;1.40;1.13;;;;;;;;;;5112408;28;20027;-64
2021/01/31 05:04:27;;;;;;;0.75;0.70;;;;;;;;;;5104618;28;20020;-65
2021/01/31 05:06:56;;;;;;;1.02;0.63;;;;;;;;;;5112411;28;20035;-65
2021/01/31 05:09:23;;;;;;;0.75;0.70;;;;;;;;;;5111565;28;20108;-66
2021/01/31 05:12:10;;;;;;;1.58;0.75;;;;;;;;;;5112451;28;20027;-63
2021/01/31 05:14:48;;;;;;;1.05;0.68;;;;;;;;;;5111265;28;20015;-64
2021/01/31 05:17:15;;;;;;;1.17;1.02;;;;;;;;;;5112241;28;20035;-65
2021/01/31 05:19:41;;;;;;;1.13;0.63;;;;;;;;;;5102194;28;20031;-65
2021/01/31 05:22:10;;;;;;;1.52;0.80;;;;;;;;;;5112308;28;20080;-64
2021/01/31 05:24:36;;;;;;;0.68;0.68;;;;;;;;;;5109700;28;20024;-64
2021/01/31 05:27:02;;;;;;;0.98;0.70;;;;;;;;;;5111232;28;20439;-64
2021/01/31 05:29:34;;;;;;;0.75;0.60;;;;;;;;;;5111383;28;20031;-63
2021/01/31 05:32:03;;;;;;;1.23;0.88;;;;;;;;;;5111493;28;20031;-64
2021/01/31 05:34:33;;;;;;;2.30;0.90;;;;;;;;;;5111079;28;20032;-64
2021/01/31 05:37:01;;;;;;;0.88;0.60;;;;;;;;;;5111462;28;20028;-64
2021/01/31 05:39:34;;;;;;;1.90;0.77;;;;;;;;;;5110604;28;20486;-63
2021/01/31 05:42:04;;;;;;;0.98;0.65;;;;;;;;;;5111078;28;20043;-64
2021/01/31 05:44:30;;;;;;;0.70;0.70;;;;;;;;;;5111128;28;20072;-66
2021/01/31 05:46:58;;;;;;;1.15;0.90;;;;;;;;;;5111657;28;20023;-64
2021/01/31 05:49:34;;;;;;;0.98;0.77;;;;;;;;;;5108947;28;20073;-62
2021/01/31 05:52:00;;;;;;;1.10;0.80;;;;;;;;;;5111542;28;20022;-64
2021/01/31 05:54:34;;;;;;;0.65;0.60;;;;;;;;;;5110938;28;20020;-63
2021/01/31 05:57:00;;;;;;;1.23;0.70;;;;;;;;;;5107940;28;20054;-64
2021/01/31 05:59:37;;;;;;;1.70;0.93;;;;;;;;;;5105086;28;20114;-62
2021/01/31 06:02:03;;;;;;;1.15;0.65;;;;;;;;;;5105007;28;20503;-64
2021/01/31 06:04:29;;;;;;;0.88;0.73;;;;;;;;;;5110315;28;20020;-64
2021/01/31 06:07:05;;;;;;;2.00;1.05;;;;;;;;;;5109187;28;20460;-64
2021/01/31 06:09:34;;;;;;;0.95;0.77;;;;;;;;;;5109598;28;20464;-64
2021/01/31 06:12:06;;;;;;;1.00;0.70;;;;;;;;;;5111321;28;20139;-65
2021/01/31 06:14:33;;;;;;;1.10;0.75;;;;;;;;;;5110429;28;20626;-64
2021/01/31 06:17:00;;;;;;;2.00;0.70;;;;;;;;;;5110578;28;20024;-65
2021/01/31 06:19:28;;;;;;;1.52;0.73;;;;;;;;;;5110441;28;20483;-62
2021/01/31 06:21:54;;;;;;;0.70;0.70;;;;;;;;;;5111009;28;20353;-64
2021/01/31 06:24:21;;;;;;;1.00;0.90;;;;;;;;;;5111075;28;20027;-64
2021/01/31 06:26:48;;;;;;;1.23;0.90;;;;;;;;;;5107281;28;20019;-64
2021/01/31 06:29:27;;;;;;;0.65;0.55;;;;;;;;;;5108094;28;20067;-63
2021/01/31 06:31:56;;;;;;;1.05;0.85;;;;;;;;;;5110843;28;20043;-64
2021/01/31 06:34:22;;;;;;;1.30;0.63;;;;;;;;;;5110695;28;20011;-62
2021/01/31 06:36:56;;;;;;;0.63;0.63;;;;;;;;;;5107153;28;20380;-65
2021/01/31 06:39:41;;;;;;;0.90;0.80;;;;;;;;;;5106047;28;20051;-64
2021/01/31 06:42:12;;;;;;;0.93;0.70;;;;;;;;;;5110874;28;20030;-64
2021/01/31 06:44:42;;;;;;;1.17;0.98;;;;;;;;;;5109797;28;20111;-64
2021/01/31 06:47:17;;;;;;;1.00;0.85;;;;;;;;;;5099062;28;20024;-64
2021/01/31 06:50:02;;;;;;;1.15;0.77;;;;;;;;;;5105910;28;20116;-64
2021/01/31 06:52:31;;;;;;;0.90;0.80;;;;;;;;;;5109777;28;20026;-64
2021/01/31 06:55:05;;;;;;;1.00;0.80;;;;;;;;;;5109163;28;20364;-63
2021/01/31 06:57:40;;;;;;;1.38;0.73;;;;;;;;;;5106601;28;20349;-64
2021/01/31 07:00:12;;;;;;;1.40;0.90;;;;;;;;;;5110297;28;20030;-64
2021/01/31 07:02:56;;;;;;;0.90;0.80;;;;;;;;;;5102390;28;20051;-64
2021/01/31 07:05:37;;;;;;;1.00;0.90;;;;;;;;;;5110112;28;20501;-65
2021/01/31 07:08:22;;;;;;;1.17;0.83;;;;;;;;;;5109014;28;20080;-64
2021/01/31 07:11:03;;;;;;;2.15;0.80;;;;;;;;;;5103863;28;20020;-64
2021/01/31 07:13:35;;;;;;;0.77;0.68;;;;;;;;;;5109038;28;20028;-64
2021/01/31 07:16:13;;;;;;;1.17;0.90;;;;;;;;;;5110322;28;20337;-64
2021/01/31 07:18:42;;;;;;;0.90;0.80;;;;;;;;;;5101199;28;20075;-65
2021/01/31 07:21:15;;;;;;;1.60;0.88;;;;;;;;;;5110699;28;20019;-62
2021/01/31 07:23:45;;;;;;;0.85;0.73;;;;;;;;;;5112313;28;20416;-64
2021/01/31 07:26:50;;;;;;;1.17;0.82;;;;;;;;;;5114825;28;20040;-64
2021/01/31 07:29:20;;;;;;;1.50;0.90;;;;;;;;;;5017903;28;20030;-64
2021/01/31 07:31:48;;;;;;;0.85;0.80;;;;;;;;;;5018593;28;20041;-63
2021/01/31 07:34:32;;;;;;;1.42;1.08;;;;;;;;;;5014964;28;20035;-64
2021/01/31 07:37:01;;;;;;;1.05;0.90;;;;;;;;;;5021482;28;20041;-64
2021/01/31 07:39:47;;;;;;;1.00;0.80;;;;;;;;;;5021438;28;20119;-62
2021/01/31 07:42:14;;;;;;;0.98;0.70;;;;;;;;;;5023321;28;20497;-64
2021/01/31 07:44:40;;;;;;;1.40;0.80;;;;;;;;;;5024960;28;20037;-63
2021/01/31 07:47:07;;;;;;;1.13;0.77;;;;;;;;;;5019197;28;20045;-64
2021/01/31 07:49:53;;;;;;;1.13;0.80;;;;;;;;;;5012129;28;20057;-64
2021/01/31 07:52:19;;;;;;;0.80;0.70;;;;;;;;;;5015661;28;20038;-64
2021/01/31 07:54:45;;;;;;;0.90;0.80;;;;;;;;;;5013142;28;20169;-64
2021/01/31 07:57:25;;;;;;;0.88;0.82;;;;;;;;;;5028574;28;20032;-64
2021/01/31 07:59:51;;;;;;;1.35;0.80;;;;;;;;;;5065263;28;20415;-65
2021/01/31 08:02:34;;;;;;;1.10;0.77;;;;;;;;;;5113719;28;20075;-64
2021/01/31 08:05:00;;;;;;;1.70;1.10;;;;;;;;;;5107248;28;20027;-64
2021/01/31 08:07:44;;;;;;;0.88;0.82;;;;;;;;;;5105206;28;20444;-62
2021/01/31 08:10:10;;;;;;;1.10;1.00;;;;;;;;;;5112633;28;20439;-64
2021/01/31 08:12:56;;;;;;;0.85;0.75;;;;;;;;;;5112646;28;20039;-64
2021/01/31 08:15:42;;;;;;;0.82;0.80;;;;;;;;;;5112705;28;20420;-65
2021/01/31 08:18:10;;;;;;;0.80;0.73;;;;;;;;;;5113807;28;20207;-65
2021/01/31 08:20:39;;;;;;;0.80;0.80;;;;;;;;;;5111855;28;20099;-64
2021/01/31 08:23:11;;;;;;;2.47;0.90;;;;;;;;;;5111674;28;20061;-65
2021/01/31 08:26:04;;;;;;;1.10;0.80;;;;;;;;;;5110538;28;20016;-64
2021/01/31 08:28:31;;;;;;;0.70;0.70;;;;;;;;;;5100865;28;20051;-64
2021/01/31 08:31:03;;;;;;;0.80;0.70;;;;;;;;;;5113052;28;20110;-64
2021/01/31 08:33:29;;;;;;;;;;;;;;;;;;5112161;28;20104;-64
2021/01/31 08:36:00;;;;;;;1.08;0.80;;;;;;;;;;5112665;28;20044;-66
2021/01/31 08:38:28;;;;;;;1.33;0.88;;;;;;;;;;5112239;28;20051;-62
2021/01/31 08:43:26;;;;;;;;;;;;;;;;;;5104665;28;20050;-62
2021/01/31 08:45:52;;;;;;;1.40;0.90;;;;;;;;;;5112696;28;19903;-65
2021/01/31 08:48:24;;;;;;;1.17;0.90;;;;;;;;;;5111619;28;20039;-64
2021/01/31 08:51:09;;;;;;;9.38;1.27;;;;;;;;;;5112412;28;20043;-66
2021/01/31 08:53:35;;;;;;;1.13;0.80;;;;;;;;;;5111388;28;20479;-65
2021/01/31 08:56:14;;;;;;;0.93;0.73;;;;;;;;;;5112575;28;20500;-64
2021/01/31 08:58:41;;;;;;;2.15;0.70;;;;;;;;;;5102726;28;20039;-65
2021/01/31 09:01:07;;;;;;;0.85;0.73;;;;;;;;;;5112765;28;20024;-64
2021/01/31 09:03:34;;;;;;;1.23;0.70;;;;;;;;;;5110743;28;20007;-64
2021/01/31 09:06:00;;;;;;;1.48;1.15;;;;;;;;;;5112148;28;20137;-64
2021/01/31 09:08:27;;;;;;;3.17;0.80;;;;;;;;;;5106449;28;20027;-61
2021/01/31 09:10:54;;;;;;;0.98;0.70;;;;;;;;;;5103627;28;20094;-62
2021/01/31 09:13:28;;;;;;;3.65;1.10;;;;;;;;;;5112210;28;20016;-65
2021/01/31 09:15:54;;;;;;;1.02;0.63;;;;;;;;;;5111031;28;20467;-65
2021/01/31 09:18:23;;;;;;;2.10;0.90;;;;;;;;;;5102599;28;20108;-59
2021/01/31 09:20:50;;;;;;;3.25;0.90;;;;;;;;;;5111983;28;20015;-59
2021/01/31 09:23:21;;;;;;;4.47;1.23;;;;;;;;;;5111769;28;20030;-65
2021/01/31 09:25:48;;;;;;;1.73;1.10;;;;;;;;;;5104303;28;20026;-65
2021/01/31 09:28:21;;;;;;;2.97;0.88;;;;;;;;;;5111659;28;20456;-63
2021/01/31 09:30:48;;;;;;;2.67;0.82;;;;;;;;;;5111528;28;20043;-64
2021/01/31 09:33:19;;;;;;;2.63;0.95;;;;;;;;;;5113524;28;20034;-65
2021/01/31 09:35:45;;;;;;;3.85;0.73;;;;;;;;;;5111769;28;20128;-65
2021/01/31 09:38:14;;;;;;;4.93;1.10;;;;;;;;;;5111977;28;20092;-65
2021/01/31 09:40:40;;;;;;;4.30;1.00;;;;;;;;;;5102478;28;20028;-66
2021/01/31 09:43:08;;;;;;;2.03;0.98;;;;;;;;;;5102680;28;20477;-65
2021/01/31 09:45:42;;;;;;;3.55;0.93;;;;;;;;;;5110310;28;20444;-65
2021/01/31 09:48:10;;;;;;;1.98;1.00;;;;;;;;;;5110505;28;20047;-66
2021/01/31 09:50:37;;;;;;;2.08;1.08;;;;;;;;;;5109353;28;20035;-67
2021/01/31 09:53:04;;;;;;;1.45;0.90;;;;;;;;;;5096499;28;20030;-66
2021/01/31 09:55:33;;;;;;;1.92;1.02;;;;;;;;;;5110637;28;20024;-66
2021/01/31 09:57:59;;;;;;;3.10;1.05;;;;;;;;;;5108476;28;20107;-66
2021/01/31 10:00:27;;;;;;;3.58;1.20;;;;;;;;;;5111037;28;20035;-62
2021/01/31 10:03:07;;;;;;;1.33;0.77;;;;;;;;;;5111763;28;20047;-66
2021/01/31 10:05:35;;;;;;;1.45;0.90;;;;;;;;;;5110729;27;20057;-65
2021/01/31 10:08:02;;;;;;;1.50;1.00;;;;;;;;;;5108955;28;20476;-66
2021/01/31 10:10:33;;;;;;;3.03;0.95;;;;;;;;;;5109226;28;20028;-66
2021/01/31 10:13:18;;;;;;;1.77;1.30;;;;;;;;;;5110931;28;20460;-66
2021/01/31 10:15:50;;;;;;;3.53;0.90;;;;;;;;;;5102221;28;20019;-67
2021/01/31 10:18:27;;;;;;;1.80;1.00;;;;;;;;;;5107416;28;20099;-66
2021/01/31 10:21:12;;;;;;;3.10;1.05;;;;;;;;;;5100413;28;20057;-68
2021/01/31 10:23:38;;;;;;;2.50;1.10;;;;;;;;;;5106076;28;20024;-68
2021/01/31 10:26:05;;;;;;;3.95;1.00;;;;;;;;;;5105055;28;20027;-67
2021/01/31 10:28:33;;;;;;;3.63;1.20;;;;;;;;;;5109844;28;20027;-69
2021/01/31 10:30:59;;;;;;;5.18;1.08;;;;;;;;;;5111175;28;20064;-70
2021/01/31 10:33:44;;;;;;;3.20;1.05;;;;;;;;;;5110260;28;20019;-65
2021/01/31 10:36:25;;;;;;;4.50;1.10;;;;;;;;;;5109756;28;20356;-64
2021/01/31 10:38:59;;;;;;;4.67;1.30;;;;;;;;;;5110513;28;20028;-59
2021/01/31 10:41:25;;;;;;;3.85;1.50;;;;;;;;;;5109792;28;20045;-62
2021/01/31 10:43:55;;;;;;;4.93;1.77;;;;;;;;;;5110293;28;20031;-61
2021/01/31 10:46:21;;;;;;;1.20;0.90;;;;;;;;;;5109965;28;20091;-59
2021/01/31 10:48:47;;;;;;;2.85;1.30;;;;;;;;;;5109669;28;20047;-53
2021/01/31 10:51:13;;;;;;;4.85;1.05;;;;;;;;;;5088951;28;20356;-56
2021/01/31 10:53:39;;;;;;;1.88;0.90;;;;;;;;;;5096758;28;20030;-61
2021/01/31 10:56:06;;;;;;;3.33;1.00;;;;;;;;;;5103300;28;20027;-58
2021/01/31 10:58:32;;;;;;;2.45;1.42;;;;;;;;;;5104233;28;20354;-60
2021/01/31 11:00:58;;;;;;;2.10;1.05;;;;;;;;;;5107570;28;20035;-60
2021/01/31 11:03:24;;;;;;;2.70;1.00;;;;;;;;;;5110327;28;20016;-61
2021/01/31 11:05:50;;;;;;;2.70;1.00;;;;;;;;;;5108470;28;20028;-63
2021/01/31 11:08:16;;;;;;;4.82;1.17;;;;;;;;;;5110369;28;20058;-60
2021/01/31 11:10:42;;;;;;;1.05;0.85;;;;;;;;;;5105621;28;20027;-60
2021/01/31 11:13:08;;;;;;;1.90;1.10;;;;;;;;;;5110352;28;20081;-60
2021/01/31 11:15:35;;;;;;;1.48;1.27;;;;;;;;;;5109103;28;20390;-61
2021/01/31 11:18:01;;;;;;;1.77;0.95;;;;;;;;;;5110580;28;20034;-61
2021/01/31 11:20:27;;;;;;;0.88;0.70;;;;;;;;;;5100943;28;20034;-63
2021/01/31 11:22:53;;;;;;;2.42;1.08;;;;;;;;;;5109775;28;20023;-60
2021/01/31 11:25:19;;;;;;;3.15;1.27;;;;;;;;;;5109020;28;20046;-60
2021/01/31 11:27:45;;;;;;;2.20;1.20;;;;;;;;;;5105745;28;20524;-62
2021/01/31 11:30:11;;;;;;;1.13;0.93;;;;;;;;;;5104138;28;20043;-66
2021/01/31 11:32:37;;;;;;;2.47;1.38;;;;;;;;;;5102461;28;20028;-55
2021/01/31 11:35:03;;;;;;;1.73;1.00;;;;;;;;;;5104955;28;20023;-64
2021/01/31 11:37:29;;;;;;;2.70;1.00;;;;;;;;;;5104109;28;20479;-68
2021/01/31 11:39:55;;;;;;;3.88;0.90;;;;;;;;;;5105248;28;20032;-61
2021/01/31 11:42:21;;;;;;;5.20;1.30;;;;;;;;;;5105317;28;20020;-62
2021/01/31 11:44:47;;;;;;;3.17;1.42;;;;;;;;;;5107229;28;20020;-61
2021/01/31 11:47:13;;;;;;;1.40;0.82;;;;;;;;;;5109050;28;20027;-63
2021/01/31 11:49:39;;;;;;;3.13;1.30;;;;;;;;;;5103589;28;20081;-60
2021/01/31 11:52:05;;;;;;;4.20;1.00;;;;;;;;;;5109495;28;20024;-64
2021/01/31 11:54:31;;;;;;;4.45;1.05;;;;;;;;;;5109431;28;20028;-64
2021/01/31 11:56:57;;;;;;;3.42;1.40;;;;;;;;;;5106022;28;20019;-64
2021/01/31 11:59:23;;;;;;;2.88;1.02;;;;;;;;;;5106556;28;20028;-64
2021/01/31 12:01:49;;;;;;;1.33;1.00;;;;;;;;;;5109717;28;20020;-65
2021/01/31 12:04:15;;;;;;;1.42;0.93;;;;;;;;;;5109698;28;20015;-66
2021/01/31 12:06:42;;;;;;;6.35;1.00;;;;;;;;;;5093376;28;20047;-69
2021/01/31 12:09:08;;;;;;;1.65;0.90;;;;;;;;;;5112202;28;20047;-61
2021/01/31 12:11:35;;;;;;;3.63;1.30;;;;;;;;;;5111160;28;20024;-65
2021/01/31 12:14:01;;;;;;;4.90;1.02;;;;;;;;;;5112352;28;20012;-62
2021/01/31 12:16:27;;;;;;;1.25;0.95;;;;;;;;;;5105495;28;20395;-67
2021/01/31 12:18:53;;;;;;;2.83;1.10;;;;;;;;;;5104896;28;20023;-61
2021/01/31 12:21:19;;;;;;;1.50;0.90;;;;;;;;;;5106351;28;20460;-62
2021/01/31 12:23:45;;;;;;;1.35;0.90;;;;;;;;;;5106580;28;20016;-61
2021/01/31 12:26:11;;;;;;;2.35;1.08;;;;;;;;;;5105542;28;20076;-61
2021/01/31 12:28:37;;;;;;;2.90;1.20;;;;;;;;;;5104833;28;20065;-62
2021/01/31 12:31:03;;;;;;;1.83;1.20;;;;;;;;;;5104507;28;20050;-60
2021/01/31 12:33:29;;;;;;;3.05;2.33;;;;;;;;;;5106271;28;20020;-62
2021/01/31 12:35:55;;;;;;;3.05;1.88;;;;;;;;;;5103770;28;20024;-61
2021/01/31 12:38:21;;;;;;;6.20;1.67;;;;;;;;;;5107557;28;20406;-62
2021/01/31 12:40:47;;;;;;;7.10;1.80;;;;;;;;;;5109151;28;20658;-62
2021/01/31 12:43:13;;;;;;;6.07;1.98;;;;;;;;;;5103931;27;20020;-63
2021/01/31 12:45:40;;;;;;;4.53;1.90;;;;;;;;;;5097055;28;20016;-61
2021/01/31 12:48:06;;;;;;;2.35;1.30;;;;;;;;;;5104855;28;20410;-60
2021/01/31 12:50:32;;;;;;;5.00;1.88;;;;;;;;;;5104447;28;20529;-61
2021/01/31 12:52:58;;;;;;;10.85;2.42;;;;;;;;;;5107623;28;20025;-61
2021/01/31 12:55:24;;;;;;;3.72;1.90;;;;;;;;;;5108713;28;20047;-69
2021/01/31 12:57:50;;;;;;;9.02;2.00;;;;;;;;;;5111323;28;20114;-63
2021/01/31 13:00:18;;;;;;;4.70;1.92;;;;;;;;;;5112653;28;20081;-59
2021/01/31 13:02:44;;;;;;;6.30;1.98;;;;;;;;;;5109575;28;20035;-64
2021/01/31 13:05:11;;;;;;;3.15;1.58;;;;;;;;;;5112294;28;20027;-64
2021/01/31 13:07:37;;;;;;;3.55;1.88;;;;;;;;;;5107371;28;20051;-63
2021/01/31 13:10:04;;;;;;;3.22;1.52;;;;;;;;;;5097764;28;20080;-61
2021/01/31 13:12:30;;;;;;;3.65;1.33;;;;;;;;;;5098922;28;20019;-60
2021/01/31 13:14:56;;;;;;;3.03;1.40;;;;;;;;;;5111946;28;20031;-61
2021/01/31 13:17:22;;;;;;;4.57;1.70;;;;;;;;;;5111669;28;20024;-63
2021/01/31 13:19:48;;;;;;;4.25;1.30;;;;;;;;;;5106849;28;20031;-62
2021/01/31 13:22:14;;;;;;;2.13;1.30;;;;;;;;;;5102741;28;20367;-61
2021/01/31 13:24:43;;;;;;;2.25;1.50;;;;;;;;;;5109971;28;20034;-62
2021/01/31 13:27:10;;;;;;;2.25;1.33;;;;;;;;;;5110328;28;20020;-61
2021/01/31 13:29:37;;;;;;;4.53;1.30;;;;;;;;;;5111067;28;20055;-60
2021/01/31 13:32:04;;;;;;;7.70;1.73;;;;;;;;;;5111763;28;20104;-61
2021/01/31 13:34:31;;;;;;;5.45;1.33;;;;;;;;;;5110854;28;20020;-61
2021/01/31 13:36:57;;;;;;;3.28;1.40;;;;;;;;;;5110567;27;20345;-62
2021/01/31 13:39:23;;;;;;;2.38;1.52;;;;;;;;;;5111818;27;20407;-61
2021/01/31 13:41:49;;;;;;;2.13;1.40;;;;;;;;;;5111287;28;20018;-61
2021/01/31 13:44:15;;;;;;;2.47;1.30;;;;;;;;;;5111002;28;20076;-60
2021/01/31 13:46:41;;;;;;;3.03;1.52;;;;;;;;;;5110596;28;20020;-60
2021/01/31 13:49:07;;;;;;;3.22;1.63;;;;;;;;;;5106822;28;20070;-62
2021/01/31 13:51:33;;;;;;;3.47;1.38;;;;;;;;;;5109897;28;20032;-62
2021/01/31 13:53:59;;;;;;;2.92;1.40;;;;;;;;;;5111613;28;20025;-62
2021/01/31 13:56:25;;;;;;;3.58;1.40;;;;;;;;;;5110999;28;20046;-63
2021/01/31 13:58:51;;;;;;;3.95;1.63;;;;;;;;;;5099518;28;20051;-60
2021/01/31 14:01:17;;;;;;;4.35;1.42;;;;;;;;;;5105758;28;20418;-57
2021/01/31 14:03:43;;;;;;;2.40;1.17;;;;;;;;;;5101207;28;20134;-61
2021/01/31 14:06:09;;;;;;;2.40;1.15;;;;;;;;;;5103080;28;20024;-60
2021/01/31 14:08:35;;;;;;;3.97;1.20;;;;;;;;;;5102806;28;20034;-60
2021/01/31 14:11:01;;;;;;;5.45;1.38;;;;;;;;;;5102069;28;20015;-61
2021/01/31 14:13:27;;;;;;;3.92;1.50;;;;;;;;;;5103708;28;20032;-61
2021/01/31 14:15:53;;;;;;;3.25;1.80;;;;;;;;;;5105674;28;20826;-60
2021/01/31 14:18:19;;;;;;;1.67;1.20;;;;;;;;;;5099612;28;20015;-64
2021/01/31 14:20:45;;;;;;;1.85;1.20;;;;;;;;;;5103014;28;20571;-63
2021/01/31 14:23:11;;;;;;;4.18;1.80;;;;;;;;;;5103302;28;20031;-61
2021/01/31 14:25:37;;;;;;;2.40;1.38;;;;;;;;;;5102325;28;20096;-61
2021/01/31 14:28:03;;;;;;;4.80;1.50;;;;;;;;;;5106404;28;20478;-60
2021/01/31 14:30:29;;;;;;;3.88;1.50;;;;;;;;;;5104168;28;20115;-60
2021/01/31 14:32:55;;;;;;;6.35;1.55;;;;;;;;;;5104633;28;20338;-63
2021/01/31 14:35:27;;;;;;;2.92;1.25;;;;;;;;;;5106711;28;20012;-61
2021/01/31 14:37:53;;;;;;;2.90;1.23;;;;;;;;;;5108379;28;20028;-60
2021/01/31 14:40:21;;;;;;;3.00;1.63;;;;;;;;;;5108203;28;20039;-60
2021/01/31 14:42:47;;;;;;;2.85;1.58;;;;;;;;;;5105124;28;20100;-59
2021/01/31 14:45:16;;;;;;;2.15;1.30;;;;;;;;;;5110415;28;20058;-60
2021/01/31 14:47:42;;;;;;;3.35;2.08;;;;;;;;;;5109505;28;20020;-62
2021/01/31 14:50:09;;;;;;;2.47;1.20;;;;;;;;;;5110433;28;20051;-62
2021/01/31 14:52:35;;;;;;;4.82;1.38;;;;;;;;;;5109697;28;20028;-61
2021/01/31 14:55:25;;;;;;;3.55;1.20;;;;;;;;;;5110234;28;20107;-60
2021/01/31 14:57:51;;;;;;;2.20;1.20;;;;;;;;;;5096703;28;20111;-63